sensor_id;sensor_type;location;lat;lon;timestamp;temperature;humidity
34833;DHT22;55941;50.800;4.342;2023-07-13T00:01:30;17.00;99.90
34833;DHT22;55941;50.800;4.342;2023-07-13T00:03:57;16.90;99.90
34833;DHT22;55941;50.800;4.342;2023-07-13T00:06:23;16.90;99.90
34833;DHT22;55941;50.800;4.342;2023-07-13T00:08:48;16.80;99.90
34833;DHT22;55941;50.800;4.342;2023-07-13T00:11:15;17.00;99.90
34833;DHT22;55941;50.800;4.342;2023-07-13T00:13:42;17.00;99.90
34833;DHT22;55941;50.800;4.342;2023-07-13T00:16:09;17.00;99.90
34833;DHT22;55941;50.800;4.342;2023-07-13T00:18:35;17.10;99.90
34833;DHT22;55941;50.800;4.342;2023-07-13T00:21:01;17.00;99.90
34833;DHT22;55941;50.800;4.342;2023-07-13T00:23:32;17.10;99.90
34833;DHT22;55941;50.800;4.342;2023-07-13T00:26:00;17.10;99.90
34833;DHT22;55941;50.800;4.342;2023-07-13T00:28:26;17.00;99.90
34833;DHT22;55941;50.800;4.342;2023-07-13T00:30:51;16.90;99.90
34833;DHT22;55941;50.800;4.342;2023-07-13T00:33:17;17.00;99.90
34833;DHT22;55941;50.800;4.342;2023-07-13T00:35:43;17.00;99.90
34833;DHT22;55941;50.800;4.342;2023-07-13T00:38:09;17.00;99.90
34833;DHT22;55941;50.800;4.342;2023-07-13T00:40:35;17.00;99.90
34833;DHT22;55941;50.800;4.342;2023-07-13T00:43:01;17.00;99.90
34833;DHT22;55941;50.800;4.342;2023-07-13T00:47:54;17.00;99.90
34833;DHT22;55941;50.800;4.342;2023-07-13T00:50:22;17.00;99.90
34833;DHT22;55941;50.800;4.342;2023-07-13T00:52:54;17.00;99.90
34833;DHT22;55941;50.800;4.342;2023-07-13T00:55:21;17.00;99.90
34833;DHT22;55941;50.800;4.342;2023-07-13T00:57:47;16.90;99.90
34833;DHT22;55941;50.800;4.342;2023-07-13T01:00:14;16.80;99.90
34833;DHT22;55941;50.800;4.342;2023-07-13T01:02:42;16.70;99.90
34833;DHT22;55941;50.800;4.342;2023-07-13T01:05:10;16.60;99.90
34833;DHT22;55941;50.800;4.342;2023-07-13T01:07:37;16.50;99.90
34833;DHT22;55941;50.800;4.342;2023-07-13T01:10:03;16.50;99.90
34833;DHT22;55941;50.800;4.342;2023-07-13T01:12:29;16.60;99.90
34833;DHT22;55941;50.800;4.342;2023-07-13T01:15:00;16.70;99.90
34833;DHT22;55941;50.800;4.342;2023-07-13T01:17:27;16.60;99.90
34833;DHT22;55941;50.800;4.342;2023-07-13T01:19:54;16.60;99.90
34833;DHT22;55941;50.800;4.342;2023-07-13T01:22:20;16.60;99.90
34833;DHT22;55941;50.800;4.342;2023-07-13T01:24:51;16.50;99.90
34833;DHT22;55941;50.800;4.342;2023-07-13T01:27:24;16.50;99.90
34833;DHT22;55941;50.800;4.342;2023-07-13T01:29:52;16.50;99.90
34833;DHT22;55941;50.800;4.342;2023-07-13T01:32:22;16.50;99.90
34833;DHT22;55941;50.800;4.342;2023-07-13T01:34:50;16.60;99.90
34833;DHT22;55941;50.800;4.342;2023-07-13T01:37:16;16.50;99.90
34833;DHT22;55941;50.800;4.342;2023-07-13T01:39:42;16.60;99.90
34833;DHT22;55941;50.800;4.342;2023-07-13T01:42:08;16.70;99.90
34833;DHT22;55941;50.800;4.342;2023-07-13T01:44:34;16.50;99.90
34833;DHT22;55941;50.800;4.342;2023-07-13T01:47:00;16.50;99.90
34833;DHT22;55941;50.800;4.342;2023-07-13T01:49:26;16.50;99.90
34833;DHT22;55941;50.800;4.342;2023-07-13T01:51:52;16.40;99.90
34833;DHT22;55941;50.800;4.342;2023-07-13T01:54:17;16.40;99.90
34833;DHT22;55941;50.800;4.342;2023-07-13T01:56:43;16.30;99.90
34833;DHT22;55941;50.800;4.342;2023-07-13T01:59:09;16.20;99.90
34833;DHT22;55941;50.800;4.342;2023-07-13T02:01:35;16.20;99.90
34833;DHT22;55941;50.800;4.342;2023-07-13T02:04:02;16.10;99.90
34833;DHT22;55941;50.800;4.342;2023-07-13T02:06:28;16.20;99.90
34833;DHT22;55941;50.800;4.342;2023-07-13T02:08:53;16.10;99.90
34833;DHT22;55941;50.800;4.342;2023-07-13T02:11:19;16.20;99.90
34833;DHT22;55941;50.800;4.342;2023-07-13T02:13:45;16.10;99.90
34833;DHT22;55941;50.800;4.342;2023-07-13T02:16:11;16.20;99.90
34833;DHT22;55941;50.800;4.342;2023-07-13T02:18:37;16.10;99.90
34833;DHT22;55941;50.800;4.342;2023-07-13T02:21:03;16.20;99.90
34833;DHT22;55941;50.800;4.342;2023-07-13T02:23:29;16.10;99.90
34833;DHT22;55941;50.800;4.342;2023-07-13T02:25:59;16.10;99.90
34833;DHT22;55941;50.800;4.342;2023-07-13T02:28:26;16.10;99.90
34833;DHT22;55941;50.800;4.342;2023-07-13T02:30:51;16.00;99.90
34833;DHT22;55941;50.800;4.342;2023-07-13T02:33:17;16.00;99.90
34833;DHT22;55941;50.800;4.342;2023-07-13T02:35:43;16.00;99.90
34833;DHT22;55941;50.800;4.342;2023-07-13T02:38:09;16.10;99.90
34833;DHT22;55941;50.800;4.342;2023-07-13T02:40:35;16.20;99.90
34833;DHT22;55941;50.800;4.342;2023-07-13T02:43:01;16.20;99.90
34833;DHT22;55941;50.800;4.342;2023-07-13T02:45:27;16.10;99.90
34833;DHT22;55941;50.800;4.342;2023-07-13T02:47:54;16.10;99.90
34833;DHT22;55941;50.800;4.342;2023-07-13T02:50:19;16.10;99.90
34833;DHT22;55941;50.800;4.342;2023-07-13T02:52:45;16.00;99.90
34833;DHT22;55941;50.800;4.342;2023-07-13T02:55:11;15.90;99.90
34833;DHT22;55941;50.800;4.342;2023-07-13T02:57:37;15.90;99.90
34833;DHT22;55941;50.800;4.342;2023-07-13T03:00:04;15.80;99.90
34833;DHT22;55941;50.800;4.342;2023-07-13T03:02:33;15.70;99.90
34833;DHT22;55941;50.800;4.342;2023-07-13T03:05:00;15.70;99.90
34833;DHT22;55941;50.800;4.342;2023-07-13T03:07:26;15.80;99.90
34833;DHT22;55941;50.800;4.342;2023-07-13T03:09:56;15.90;99.90
34833;DHT22;55941;50.800;4.342;2023-07-13T03:12:23;16.00;99.90
34833;DHT22;55941;50.800;4.342;2023-07-13T03:14:49;15.90;99.90
34833;DHT22;55941;50.800;4.342;2023-07-13T03:17:14;16.00;99.90
34833;DHT22;55941;50.800;4.342;2023-07-13T03:19:40;15.90;99.90
34833;DHT22;55941;50.800;4.342;2023-07-13T03:22:06;15.80;99.90
34833;DHT22;55941;50.800;4.342;2023-07-13T03:24:35;15.80;99.90
34833;DHT22;55941;50.800;4.342;2023-07-13T03:27:04;15.80;99.90
34833;DHT22;55941;50.800;4.342;2023-07-13T03:29:30;15.90;99.90
34833;DHT22;55941;50.800;4.342;2023-07-13T03:31:56;15.80;99.90
34833;DHT22;55941;50.800;4.342;2023-07-13T03:34:22;15.80;99.90
34833;DHT22;55941;50.800;4.342;2023-07-13T03:36:48;15.80;99.90
34833;DHT22;55941;50.800;4.342;2023-07-13T03:39:13;15.80;99.90
34833;DHT22;55941;50.800;4.342;2023-07-13T03:41:39;15.70;99.90
34833;DHT22;55941;50.800;4.342;2023-07-13T03:44:05;15.70;99.90
34833;DHT22;55941;50.800;4.342;2023-07-13T03:46:31;15.80;99.90
34833;DHT22;55941;50.800;4.342;2023-07-13T03:48:58;15.90;99.90
34833;DHT22;55941;50.800;4.342;2023-07-13T03:51:23;15.90;99.90
34833;DHT22;55941;50.800;4.342;2023-07-13T03:53:49;15.80;99.90
34833;DHT22;55941;50.800;4.342;2023-07-13T03:56:16;15.80;99.90
34833;DHT22;55941;50.800;4.342;2023-07-13T03:58:45;15.80;99.90
34833;DHT22;55941;50.800;4.342;2023-07-13T04:01:11;15.90;99.90
34833;DHT22;55941;50.800;4.342;2023-07-13T04:03:37;15.80;99.90
34833;DHT22;55941;50.800;4.342;2023-07-13T04:06:05;15.70;99.90
34833;DHT22;55941;50.800;4.342;2023-07-13T04:08:33;15.80;99.90
34833;DHT22;55941;50.800;4.342;2023-07-13T04:11:00;15.80;99.90
34833;DHT22;55941;50.800;4.342;2023-07-13T04:13:26;15.80;99.90
34833;DHT22;55941;50.800;4.342;2023-07-13T04:15:53;15.80;99.90
34833;DHT22;55941;50.800;4.342;2023-07-13T04:18:19;16.00;99.90
34833;DHT22;55941;50.800;4.342;2023-07-13T04:20:47;16.00;99.90
34833;DHT22;55941;50.800;4.342;2023-07-13T04:23:13;16.10;99.90
34833;DHT22;55941;50.800;4.342;2023-07-13T04:25:42;16.10;99.90
34833;DHT22;55941;50.800;4.342;2023-07-13T04:28:08;16.10;99.90
34833;DHT22;55941;50.800;4.342;2023-07-13T04:30:34;16.00;99.90
34833;DHT22;55941;50.800;4.342;2023-07-13T04:33:00;16.00;99.90
34833;DHT22;55941;50.800;4.342;2023-07-13T04:35:26;16.00;99.90
34833;DHT22;55941;50.800;4.342;2023-07-13T04:37:52;16.00;99.90
34833;DHT22;55941;50.800;4.342;2023-07-13T04:40:19;15.90;99.90
34833;DHT22;55941;50.800;4.342;2023-07-13T04:42:46;15.90;99.90
34833;DHT22;55941;50.800;4.342;2023-07-13T04:45:14;16.10;99.90
34833;DHT22;55941;50.800;4.342;2023-07-13T04:47:41;16.00;99.90
34833;DHT22;55941;50.800;4.342;2023-07-13T04:50:07;16.10;99.90
34833;DHT22;55941;50.800;4.342;2023-07-13T04:52:34;16.20;99.90
34833;DHT22;55941;50.800;4.342;2023-07-13T04:55:00;16.20;99.90
34833;DHT22;55941;50.800;4.342;2023-07-13T04:57:27;16.30;99.90
34833;DHT22;55941;50.800;4.342;2023-07-13T04:59:53;16.10;99.90
34833;DHT22;55941;50.800;4.342;2023-07-13T05:02:20;16.00;99.90
34833;DHT22;55941;50.800;4.342;2023-07-13T05:04:49;16.00;99.90
34833;DHT22;55941;50.800;4.342;2023-07-13T05:07:15;15.90;99.90
34833;DHT22;55941;50.800;4.342;2023-07-13T05:09:41;16.10;99.90
34833;DHT22;55941;50.800;4.342;2023-07-13T05:12:09;16.20;99.90
34833;DHT22;55941;50.800;4.342;2023-07-13T05:14:35;16.20;99.90
34833;DHT22;55941;50.800;4.342;2023-07-13T05:17:01;16.30;99.90
34833;DHT22;55941;50.800;4.342;2023-07-13T05:19:27;16.30;99.90
34833;DHT22;55941;50.800;4.342;2023-07-13T05:21:53;16.20;99.90
34833;DHT22;55941;50.800;4.342;2023-07-13T05:24:19;16.20;99.90
34833;DHT22;55941;50.800;4.342;2023-07-13T05:26:45;16.30;99.90
34833;DHT22;55941;50.800;4.342;2023-07-13T05:29:11;16.40;99.90
34833;DHT22;55941;50.800;4.342;2023-07-13T05:31:37;16.40;99.90
34833;DHT22;55941;50.800;4.342;2023-07-13T05:34:03;16.40;99.90
34833;DHT22;55941;50.800;4.342;2023-07-13T05:36:29;16.40;99.90
34833;DHT22;55941;50.800;4.342;2023-07-13T05:38:55;16.40;99.90
34833;DHT22;55941;50.800;4.342;2023-07-13T05:41:20;16.50;99.90
34833;DHT22;55941;50.800;4.342;2023-07-13T05:43:46;16.50;99.90
34833;DHT22;55941;50.800;4.342;2023-07-13T05:46:12;16.50;99.90
34833;DHT22;55941;50.800;4.342;2023-07-13T05:48:39;16.40;99.90
34833;DHT22;55941;50.800;4.342;2023-07-13T05:51:05;16.50;99.90
34833;DHT22;55941;50.800;4.342;2023-07-13T05:53:30;16.60;99.90
34833;DHT22;55941;50.800;4.342;2023-07-13T05:55:56;16.70;99.90
34833;DHT22;55941;50.800;4.342;2023-07-13T05:58:22;16.60;99.90
34833;DHT22;55941;50.800;4.342;2023-07-13T06:00:48;16.60;99.90
34833;DHT22;55941;50.800;4.342;2023-07-13T06:03:24;16.60;99.90
34833;DHT22;55941;50.800;4.342;2023-07-13T06:05:50;16.60;99.90
34833;DHT22;55941;50.800;4.342;2023-07-13T06:08:15;16.70;99.90
34833;DHT22;55941;50.800;4.342;2023-07-13T06:10:41;16.70;99.90
34833;DHT22;55941;50.800;4.342;2023-07-13T06:13:07;16.80;99.90
34833;DHT22;55941;50.800;4.342;2023-07-13T06:15:33;16.90;99.90
34833;DHT22;55941;50.800;4.342;2023-07-13T06:17:58;17.00;99.90
34833;DHT22;55941;50.800;4.342;2023-07-13T06:20:24;17.00;99.90
34833;DHT22;55941;50.800;4.342;2023-07-13T06:22:50;16.90;99.90
34833;DHT22;55941;50.800;4.342;2023-07-13T06:25:16;17.00;99.90
34833;DHT22;55941;50.800;4.342;2023-07-13T06:27:43;17.00;99.90
34833;DHT22;55941;50.800;4.342;2023-07-13T06:30:09;17.10;99.90
34833;DHT22;55941;50.800;4.342;2023-07-13T06:32:35;17.10;99.90
34833;DHT22;55941;50.800;4.342;2023-07-13T06:35:01;17.20;99.90
34833;DHT22;55941;50.800;4.342;2023-07-13T06:37:27;17.20;99.90
34833;DHT22;55941;50.800;4.342;2023-07-13T06:39:53;17.20;99.90
34833;DHT22;55941;50.800;4.342;2023-07-13T06:42:18;17.20;99.90
34833;DHT22;55941;50.800;4.342;2023-07-13T06:44:44;17.20;99.90
34833;DHT22;55941;50.800;4.342;2023-07-13T06:47:10;17.20;99.90
34833;DHT22;55941;50.800;4.342;2023-07-13T06:49:36;17.20;99.90
34833;DHT22;55941;50.800;4.342;2023-07-13T06:52:02;17.20;99.90
34833;DHT22;55941;50.800;4.342;2023-07-13T06:54:28;17.20;99.90
34833;DHT22;55941;50.800;4.342;2023-07-13T06:56:53;17.40;99.90
34833;DHT22;55941;50.800;4.342;2023-07-13T06:59:19;17.40;99.90
34833;DHT22;55941;50.800;4.342;2023-07-13T07:01:45;17.60;99.90
34833;DHT22;55941;50.800;4.342;2023-07-13T07:04:11;17.60;99.90
34833;DHT22;55941;50.800;4.342;2023-07-13T07:06:37;17.50;99.90
34833;DHT22;55941;50.800;4.342;2023-07-13T07:09:02;17.50;99.90
34833;DHT22;55941;50.800;4.342;2023-07-13T07:11:28;17.60;99.90
34833;DHT22;55941;50.800;4.342;2023-07-13T07:13:54;17.70;99.90
34833;DHT22;55941;50.800;4.342;2023-07-13T07:16:20;17.80;99.90
34833;DHT22;55941;50.800;4.342;2023-07-13T07:18:47;17.90;99.90
34833;DHT22;55941;50.800;4.342;2023-07-13T07:21:13;17.80;99.90
34833;DHT22;55941;50.800;4.342;2023-07-13T07:23:39;17.90;99.90
34833;DHT22;55941;50.800;4.342;2023-07-13T07:26:05;18.00;99.90
34833;DHT22;55941;50.800;4.342;2023-07-13T07:28:31;18.10;99.90
34833;DHT22;55941;50.800;4.342;2023-07-13T07:30:58;18.10;99.90
34833;DHT22;55941;50.800;4.342;2023-07-13T07:33:24;18.00;99.90
34833;DHT22;55941;50.800;4.342;2023-07-13T07:35:50;18.00;99.90
34833;DHT22;55941;50.800;4.342;2023-07-13T07:38:16;18.10;99.90
34833;DHT22;55941;50.800;4.342;2023-07-13T07:40:42;18.20;99.90
34833;DHT22;55941;50.800;4.342;2023-07-13T07:43:10;18.30;99.90
34833;DHT22;55941;50.800;4.342;2023-07-13T07:45:38;18.30;99.90
34833;DHT22;55941;50.800;4.342;2023-07-13T07:48:05;18.40;99.90
34833;DHT22;55941;50.800;4.342;2023-07-13T07:50:31;18.50;99.90
34833;DHT22;55941;50.800;4.342;2023-07-13T07:52:57;18.50;99.90
34833;DHT22;55941;50.800;4.342;2023-07-13T07:55:24;18.50;99.90
34833;DHT22;55941;50.800;4.342;2023-07-13T07:57:52;18.50;99.90
34833;DHT22;55941;50.800;4.342;2023-07-13T08:00:18;18.40;99.90
34833;DHT22;55941;50.800;4.342;2023-07-13T08:02:44;18.40;99.90
34833;DHT22;55941;50.800;4.342;2023-07-13T08:05:10;18.20;99.90
34833;DHT22;55941;50.800;4.342;2023-07-13T08:07:39;18.30;99.90
34833;DHT22;55941;50.800;4.342;2023-07-13T08:10:07;18.50;99.90
34833;DHT22;55941;50.800;4.342;2023-07-13T08:12:36;18.40;99.90
34833;DHT22;55941;50.800;4.342;2023-07-13T08:15:03;18.30;99.90
34833;DHT22;55941;50.800;4.342;2023-07-13T08:17:29;18.40;99.90
34833;DHT22;55941;50.800;4.342;2023-07-13T08:19:55;18.50;99.90
34833;DHT22;55941;50.800;4.342;2023-07-13T08:22:20;18.70;99.90
34833;DHT22;55941;50.800;4.342;2023-07-13T08:24:46;18.70;99.90
34833;DHT22;55941;50.800;4.342;2023-07-13T08:27:13;18.80;99.90
34833;DHT22;55941;50.800;4.342;2023-07-13T08:29:39;18.80;99.90
34833;DHT22;55941;50.800;4.342;2023-07-13T08:32:07;18.90;99.90
34833;DHT22;55941;50.800;4.342;2023-07-13T08:34:36;19.00;99.90
34833;DHT22;55941;50.800;4.342;2023-07-13T08:37:02;18.90;99.90
34833;DHT22;55941;50.800;4.342;2023-07-13T08:39:30;18.90;99.90
34833;DHT22;55941;50.800;4.342;2023-07-13T08:42:18;19.00;99.90
34833;DHT22;55941;50.800;4.342;2023-07-13T08:47:24;19.00;99.90
34833;DHT22;55941;50.800;4.342;2023-07-13T08:49:50;19.00;99.90
34833;DHT22;55941;50.800;4.342;2023-07-13T08:52:54;19.00;99.90
34833;DHT22;55941;50.800;4.342;2023-07-13T08:55:24;19.10;99.90
34833;DHT22;55941;50.800;4.342;2023-07-13T08:58:02;19.30;99.90
34833;DHT22;55941;50.800;4.342;2023-07-13T09:03:16;19.20;99.90
34833;DHT22;55941;50.800;4.342;2023-07-13T09:05:52;19.20;99.90
34833;DHT22;55941;50.800;4.342;2023-07-13T09:16:43;19.40;99.90
34833;DHT22;55941;50.800;4.342;2023-07-13T09:19:17;19.70;99.90
34833;DHT22;55941;50.800;4.342;2023-07-13T09:21:45;19.80;99.90
34833;DHT22;55941;50.800;4.342;2023-07-13T09:26:55;19.90;99.90
34833;DHT22;55941;50.800;4.342;2023-07-13T09:29:28;19.80;99.90
34833;DHT22;55941;50.800;4.342;2023-07-13T09:31:57;19.80;99.90
34833;DHT22;55941;50.800;4.342;2023-07-13T09:34:25;20.00;99.90
34833;DHT22;55941;50.800;4.342;2023-07-13T09:36:51;20.10;99.90
34833;DHT22;55941;50.800;4.342;2023-07-13T09:39:30;20.10;99.90
34833;DHT22;55941;50.800;4.342;2023-07-13T09:41:59;20.30;99.90
34833;DHT22;55941;50.800;4.342;2023-07-13T09:44:30;20.30;99.90
34833;DHT22;55941;50.800;4.342;2023-07-13T09:46:57;20.40;99.90
34833;DHT22;55941;50.800;4.342;2023-07-13T09:49:29;20.50;99.90
34833;DHT22;55941;50.800;4.342;2023-07-13T09:52:02;20.70;99.90
34833;DHT22;55941;50.800;4.342;2023-07-13T09:54:28;20.60;99.90
34833;DHT22;55941;50.800;4.342;2023-07-13T09:56:58;20.40;99.90
34833;DHT22;55941;50.800;4.342;2023-07-13T09:59:29;20.40;99.90
34833;DHT22;55941;50.800;4.342;2023-07-13T10:01:55;20.60;99.90
34833;DHT22;55941;50.800;4.342;2023-07-13T10:04:31;20.70;99.90
34833;DHT22;55941;50.800;4.342;2023-07-13T10:07:12;20.50;99.90
34833;DHT22;55941;50.800;4.342;2023-07-13T10:09:39;20.40;99.90
34833;DHT22;55941;50.800;4.342;2023-07-13T10:12:16;20.40;99.90
34833;DHT22;55941;50.800;4.342;2023-07-13T10:14:43;20.50;99.90
34833;DHT22;55941;50.800;4.342;2023-07-13T10:17:13;20.40;99.90
34833;DHT22;55941;50.800;4.342;2023-07-13T10:19:41;20.40;99.90
34833;DHT22;55941;50.800;4.342;2023-07-13T10:22:27;20.70;99.90
34833;DHT22;55941;50.800;4.342;2023-07-13T10:24:55;20.80;99.90
34833;DHT22;55941;50.800;4.342;2023-07-13T10:27:34;20.80;99.90
34833;DHT22;55941;50.800;4.342;2023-07-13T10:30:15;20.90;99.90
34833;DHT22;55941;50.800;4.342;2023-07-13T10:32:43;20.90;99.90
34833;DHT22;55941;50.800;4.342;2023-07-13T10:35:15;21.00;99.90
34833;DHT22;55941;50.800;4.342;2023-07-13T10:40:18;21.50;99.90
34833;DHT22;55941;50.800;4.342;2023-07-13T10:42:47;21.50;99.90
34833;DHT22;55941;50.800;4.342;2023-07-13T10:45:15;21.40;99.90
34833;DHT22;55941;50.800;4.342;2023-07-13T10:47:43;21.30;99.90
34833;DHT22;55941;50.800;4.342;2023-07-13T10:50:25;21.20;99.90
34833;DHT22;55941;50.800;4.342;2023-07-13T10:52:54;21.30;99.90
34833;DHT22;55941;50.800;4.342;2023-07-13T10:55:40;21.30;99.90
34833;DHT22;55941;50.800;4.342;2023-07-13T10:58:22;21.30;99.90
34833;DHT22;55941;50.800;4.342;2023-07-13T11:01:14;21.40;99.90
34833;DHT22;55941;50.800;4.342;2023-07-13T11:25:02;22.20;99.90
34833;DHT22;55941;50.800;4.342;2023-07-13T11:27:38;22.30;99.90
34833;DHT22;55941;50.800;4.342;2023-07-13T11:33:20;22.40;99.90
34833;DHT22;55941;50.800;4.342;2023-07-13T11:39:03;22.40;99.90
34833;DHT22;55941;50.800;4.342;2023-07-13T11:41:43;22.00;99.90
34833;DHT22;55941;50.800;4.342;2023-07-13T11:44:19;21.90;99.90
34833;DHT22;55941;50.800;4.342;2023-07-13T11:46:47;21.70;99.90
34833;DHT22;55941;50.800;4.342;2023-07-13T11:49:24;21.60;99.90
34833;DHT22;55941;50.800;4.342;2023-07-13T11:51:51;21.60;99.90
34833;DHT22;55941;50.800;4.342;2023-07-13T11:54:31;21.50;99.90
34833;DHT22;55941;50.800;4.342;2023-07-13T11:57:01;21.40;99.90
34833;DHT22;55941;50.800;4.342;2023-07-13T11:59:32;21.30;99.90
34833;DHT22;55941;50.800;4.342;2023-07-13T12:01:59;21.20;99.90
34833;DHT22;55941;50.800;4.342;2023-07-13T12:04:32;21.30;99.90
34833;DHT22;55941;50.800;4.342;2023-07-13T12:07:16;21.30;99.90
34833;DHT22;55941;50.800;4.342;2023-07-13T12:09:42;21.30;99.90
34833;DHT22;55941;50.800;4.342;2023-07-13T12:12:20;21.30;99.90
34833;DHT22;55941;50.800;4.342;2023-07-13T12:14:46;21.30;99.90
34833;DHT22;55941;50.800;4.342;2023-07-13T12:17:19;21.10;99.90
34833;DHT22;55941;50.800;4.342;2023-07-13T12:19:45;21.10;99.90
34833;DHT22;55941;50.800;4.342;2023-07-13T12:22:13;21.20;99.90
34833;DHT22;55941;50.800;4.342;2023-07-13T12:24:43;21.30;99.90
34833;DHT22;55941;50.800;4.342;2023-07-13T12:30:15;21.40;99.90
34833;DHT22;55941;50.800;4.342;2023-07-13T12:35:29;21.00;99.90
34833;DHT22;55941;50.800;4.342;2023-07-13T12:38:01;20.80;99.90
34833;DHT22;55941;50.800;4.342;2023-07-13T12:40:32;20.50;99.90
34833;DHT22;55941;50.800;4.342;2023-07-13T12:42:59;20.10;99.90
34833;DHT22;55941;50.800;4.342;2023-07-13T12:45:27;19.70;99.90
34833;DHT22;55941;50.800;4.342;2023-07-13T12:48:04;19.60;99.90
34833;DHT22;55941;50.800;4.342;2023-07-13T12:50:37;19.10;99.90
34833;DHT22;55941;50.800;4.342;2023-07-13T12:53:13;19.00;99.90
34833;DHT22;55941;50.800;4.342;2023-07-13T12:55:57;18.70;99.90
34833;DHT22;55941;50.800;4.342;2023-07-13T12:58:36;18.50;99.90
34833;DHT22;55941;50.800;4.342;2023-07-13T13:01:03;18.60;99.90
34833;DHT22;55941;50.800;4.342;2023-07-13T13:03:39;18.90;99.90
34833;DHT22;55941;50.800;4.342;2023-07-13T13:08:50;20.40;99.90
34833;DHT22;55941;50.800;4.342;2023-07-13T13:11:19;21.80;99.90
34833;DHT22;55941;50.800;4.342;2023-07-13T13:13:46;22.70;99.90
34833;DHT22;55941;50.800;4.342;2023-07-13T13:16:26;23.10;99.90
34833;DHT22;55941;50.800;4.342;2023-07-13T13:18:57;23.10;99.90
34833;DHT22;55941;50.800;4.342;2023-07-13T13:21:25;22.80;99.90
34833;DHT22;55941;50.800;4.342;2023-07-13T13:23:51;22.80;99.90
34833;DHT22;55941;50.800;4.342;2023-07-13T13:26:23;22.90;99.90
34833;DHT22;55941;50.800;4.342;2023-07-13T13:28:49;23.00;99.90
34833;DHT22;55941;50.800;4.342;2023-07-13T13:31:15;23.30;99.90
34833;DHT22;55941;50.800;4.342;2023-07-13T13:33:44;23.00;99.90
34833;DHT22;55941;50.800;4.342;2023-07-13T13:36:18;23.00;99.90
34833;DHT22;55941;50.800;4.342;2023-07-13T13:38:44;23.20;99.90
34833;DHT22;55941;50.800;4.342;2023-07-13T13:41:12;23.80;99.90
34833;DHT22;55941;50.800;4.342;2023-07-13T13:43:39;24.60;99.90
34833;DHT22;55941;50.800;4.342;2023-07-13T13:46:17;25.20;99.90
34833;DHT22;55941;50.800;4.342;2023-07-13T13:48:44;25.10;99.90
34833;DHT22;55941;50.800;4.342;2023-07-13T13:51:19;24.80;99.90
34833;DHT22;55941;50.800;4.342;2023-07-13T13:53:46;24.60;99.90
34833;DHT22;55941;50.800;4.342;2023-07-13T13:56:13;24.50;99.90
34833;DHT22;55941;50.800;4.342;2023-07-13T13:58:40;24.30;99.90
34833;DHT22;55941;50.800;4.342;2023-07-13T14:01:13;24.10;99.90
34833;DHT22;55941;50.800;4.342;2023-07-13T14:03:39;23.80;99.90
34833;DHT22;55941;50.800;4.342;2023-07-13T14:06:07;23.80;99.90
34833;DHT22;55941;50.800;4.342;2023-07-13T14:08:33;23.80;99.90
34833;DHT22;55941;50.800;4.342;2023-07-13T14:10:59;23.70;99.90
34833;DHT22;55941;50.800;4.342;2023-07-13T14:13:36;23.50;99.90
34833;DHT22;55941;50.800;4.342;2023-07-13T14:16:11;23.40;99.90
34833;DHT22;55941;50.800;4.342;2023-07-13T14:18:37;23.20;99.90
34833;DHT22;55941;50.800;4.342;2023-07-13T14:21:08;22.50;99.90
34833;DHT22;55941;50.800;4.342;2023-07-13T14:23:34;21.70;99.90
34833;DHT22;55941;50.800;4.342;2023-07-13T14:25:59;21.10;99.90
34833;DHT22;55941;50.800;4.342;2023-07-13T14:28:26;20.80;99.90
34833;DHT22;55941;50.800;4.342;2023-07-13T14:30:53;20.70;99.90
34833;DHT22;55941;50.800;4.342;2023-07-13T14:33:20;20.50;99.90
34833;DHT22;55941;50.800;4.342;2023-07-13T14:35:47;20.50;99.90
34833;DHT22;55941;50.800;4.342;2023-07-13T14:38:16;20.40;99.90
34833;DHT22;55941;50.800;4.342;2023-07-13T14:40:43;20.40;99.90
34833;DHT22;55941;50.800;4.342;2023-07-13T14:43:16;20.50;99.90
34833;DHT22;55941;50.800;4.342;2023-07-13T14:45:44;20.80;99.90
34833;DHT22;55941;50.800;4.342;2023-07-13T14:48:22;21.00;99.90
34833;DHT22;55941;50.800;4.342;2023-07-13T14:50:58;21.30;99.90
34833;DHT22;55941;50.800;4.342;2023-07-13T14:53:26;21.60;99.90
34833;DHT22;55941;50.800;4.342;2023-07-13T14:55:54;21.90;99.90
34833;DHT22;55941;50.800;4.342;2023-07-13T14:58:20;22.20;99.90
34833;DHT22;55941;50.800;4.342;2023-07-13T15:00:46;22.60;99.90
34833;DHT22;55941;50.800;4.342;2023-07-13T15:03:22;23.00;99.90
34833;DHT22;55941;50.800;4.342;2023-07-13T15:05:49;23.90;99.90
34833;DHT22;55941;50.800;4.342;2023-07-13T15:08:15;24.40;99.90
34833;DHT22;55941;50.800;4.342;2023-07-13T15:10:41;24.60;99.90
34833;DHT22;55941;50.800;4.342;2023-07-13T15:13:15;24.60;99.90
34833;DHT22;55941;50.800;4.342;2023-07-13T15:15:43;25.10;99.90
34833;DHT22;55941;50.800;4.342;2023-07-13T15:18:15;25.60;99.90
34833;DHT22;55941;50.800;4.342;2023-07-13T15:20:43;25.90;99.90
34833;DHT22;55941;50.800;4.342;2023-07-13T15:23:11;25.80;99.90
34833;DHT22;55941;50.800;4.342;2023-07-13T15:25:37;26.50;99.90
34833;DHT22;55941;50.800;4.342;2023-07-13T15:28:03;26.80;98.40
34833;DHT22;55941;50.800;4.342;2023-07-13T15:30:31;27.90;97.80
34833;DHT22;55941;50.800;4.342;2023-07-13T15:33:14;29.00;95.20
34833;DHT22;55941;50.800;4.342;2023-07-13T15:35:42;29.10;93.10
34833;DHT22;55941;50.800;4.342;2023-07-13T15:38:27;28.30;92.80
34833;DHT22;55941;50.800;4.342;2023-07-13T15:40:54;27.80;92.70
34833;DHT22;55941;50.800;4.342;2023-07-13T15:43:21;27.30;92.40
34833;DHT22;55941;50.800;4.342;2023-07-13T15:45:47;26.90;94.60
34833;DHT22;55941;50.800;4.342;2023-07-13T15:48:20;26.50;94.50
34833;DHT22;55941;50.800;4.342;2023-07-13T15:50:51;26.40;94.80
34833;DHT22;55941;50.800;4.342;2023-07-13T15:53:20;27.30;94.70
34833;DHT22;55941;50.800;4.342;2023-07-13T15:55:48;27.40;92.50
34833;DHT22;55941;50.800;4.342;2023-07-13T15:58:15;27.70;92.70
34833;DHT22;55941;50.800;4.342;2023-07-13T16:00:41;28.10;91.90
34833;DHT22;55941;50.800;4.342;2023-07-13T16:03:07;28.70;91.30
34833;DHT22;55941;50.800;4.342;2023-07-13T16:05:33;28.40;91.40
34833;DHT22;55941;50.800;4.342;2023-07-13T16:08:00;27.70;91.50
34833;DHT22;55941;50.800;4.342;2023-07-13T16:10:31;27.30;92.30
34833;DHT22;55941;50.800;4.342;2023-07-13T16:12:58;26.70;92.80
34833;DHT22;55941;50.800;4.342;2023-07-13T16:15:24;26.90;92.70
34833;DHT22;55941;50.800;4.342;2023-07-13T16:17:50;26.90;92.10
34833;DHT22;55941;50.800;4.342;2023-07-13T16:20:17;27.20;92.20
34833;DHT22;55941;50.800;4.342;2023-07-13T16:22:47;27.60;92.10
34833;DHT22;55941;50.800;4.342;2023-07-13T16:25:15;28.80;91.10
34833;DHT22;55941;50.800;4.342;2023-07-13T16:27:42;29.40;87.60
34833;DHT22;55941;50.800;4.342;2023-07-13T16:30:18;29.80;87.10
34833;DHT22;55941;50.800;4.342;2023-07-13T16:32:48;29.90;84.90
34833;DHT22;55941;50.800;4.342;2023-07-13T16:35:23;30.00;81.60